sensor_id;sensor_type;location;lat;lon;timestamp;pressure;altitude;pressure_sealevel;temperature;humidity
9139;BME280;4604;48.616;9.548;2023-11-21T00:01:40;96354.47;;;8.30;100.00
9139;BME280;4604;48.616;9.548;2023-11-21T00:04:07;96354.59;;;8.28;100.00
9139;BME280;4604;48.616;9.548;2023-11-21T00:06:34;96344.34;;;8.25;100.00
9139;BME280;4604;48.616;9.548;2023-11-21T00:09:00;96348.63;;;8.36;100.00
9139;BME280;4604;48.616;9.548;2023-11-21T00:11:27;96323.88;;;8.19;100.00
9139;BME280;4604;48.616;9.548;2023-11-21T00:13:54;96344.06;;;8.38;100.00
9139;BME280;4604;48.616;9.548;2023-11-21T00:16:22;96338.28;;;8.34;100.00
9139;BME280;4604;48.616;9.548;2023-11-21T00:18:50;96311.56;;;8.29;100.00
9139;BME280;4604;48.616;9.548;2023-11-21T00:21:17;96339.41;;;8.42;100.00
9139;BME280;4604;48.616;9.548;2023-11-21T00:23:43;96320.69;;;8.35;100.00
9139;BME280;4604;48.616;9.548;2023-11-21T00:26:10;96315.59;;;8.43;100.00
9139;BME280;4604;48.616;9.548;2023-11-21T00:28:37;96313.50;;;8.47;100.00
9139;BME280;4604;48.616;9.548;2023-11-21T00:31:03;96324.56;;;8.50;100.00
9139;BME280;4604;48.616;9.548;2023-11-21T00:33:31;96315.97;;;8.48;100.00
9139;BME280;4604;48.616;9.548;2023-11-21T00:35:59;96332.63;;;8.49;100.00
9139;BME280;4604;48.616;9.548;2023-11-21T00:38:26;96303.94;;;8.36;100.00
9139;BME280;4604;48.616;9.548;2023-11-21T00:40:52;96302.41;;;8.33;100.00
9139;BME280;4604;48.616;9.548;2023-11-21T00:43:21;96281.16;;;8.27;100.00
9139;BME280;4604;48.616;9.548;2023-11-21T00:45:50;96264.69;;;8.15;100.00
9139;BME280;4604;48.616;9.548;2023-11-21T00:48:17;96312.69;;;8.46;100.00
9139;BME280;4604;48.616;9.548;2023-11-21T00:50:46;96298.53;;;8.38;100.00
9139;BME280;4604;48.616;9.548;2023-11-21T00:53:12;96265.78;;;8.32;100.00
9139;BME280;4604;48.616;9.548;2023-11-21T00:55:39;96252.91;;;8.09;100.00
9139;BME280;4604;48.616;9.548;2023-11-21T00:58:06;96264.81;;;8.23;100.00
9139;BME280;4604;48.616;9.548;2023-11-21T01:00:33;96321.69;;;8.53;100.00
9139;BME280;4604;48.616;9.548;2023-11-21T01:03:00;96326.78;;;8.55;100.00
9139;BME280;4604;48.616;9.548;2023-11-21T01:05:27;96316.13;;;8.56;100.00
9139;BME280;4604;48.616;9.548;2023-11-21T01:07:56;96284.00;;;8.33;100.00
9139;BME280;4604;48.616;9.548;2023-11-21T01:10:22;96325.25;;;8.52;100.00
9139;BME280;4604;48.616;9.548;2023-11-21T01:12:50;96291.19;;;8.51;100.00
9139;BME280;4604;48.616;9.548;2023-11-21T01:15:16;96323.63;;;8.51;100.00
9139;BME280;4604;48.616;9.548;2023-11-21T01:17:43;96325.94;;;8.54;100.00
9139;BME280;4604;48.616;9.548;2023-11-21T01:20:11;96323.84;;;8.68;100.00
9139;BME280;4604;48.616;9.548;2023-11-21T01:22:38;96322.09;;;8.49;100.00
9139;BME280;4604;48.616;9.548;2023-11-21T01:25:06;96321.94;;;8.50;100.00
9139;BME280;4604;48.616;9.548;2023-11-21T01:27:33;96323.88;;;8.48;100.00
9139;BME280;4604;48.616;9.548;2023-11-21T01:30:00;96322.78;;;8.41;100.00
9139;BME280;4604;48.616;9.548;2023-11-21T01:32:27;96317.50;;;8.51;100.00
9139;BME280;4604;48.616;9.548;2023-11-21T01:34:54;96323.44;;;8.53;100.00
9139;BME280;4604;48.616;9.548;2023-11-21T01:37:21;96322.34;;;8.55;100.00
9139;BME280;4604;48.616;9.548;2023-11-21T01:39:48;96323.75;;;8.50;100.00
9139;BME280;4604;48.616;9.548;2023-11-21T01:42:15;96322.22;;;8.47;100.00
9139;BME280;4604;48.616;9.548;2023-11-21T01:44:42;96314.75;;;8.43;100.00
9139;BME280;4604;48.616;9.548;2023-11-21T01:47:09;96258.63;;;8.14;100.00
9139;BME280;4604;48.616;9.548;2023-11-21T01:49:36;96299.78;;;8.33;100.00
9139;BME280;4604;48.616;9.548;2023-11-21T01:52:03;96308.06;;;8.39;100.00
9139;BME280;4604;48.616;9.548;2023-11-21T01:54:30;96317.25;;;8.44;100.00
9139;BME280;4604;48.616;9.548;2023-11-21T01:56:58;96306.72;;;8.34;100.00
9139;BME280;4604;48.616;9.548;2023-11-21T01:59:34;96257.09;;;8.02;100.00
9139;BME280;4604;48.616;9.548;2023-11-21T02:02:02;96269.97;;;8.05;100.00
9139;BME280;4604;48.616;9.548;2023-11-21T02:04:30;96243.13;;;7.92;100.00
9139;BME280;4604;48.616;9.548;2023-11-21T02:06:57;96272.16;;;8.20;100.00
9139;BME280;4604;48.616;9.548;2023-11-21T02:09:25;96291.38;;;8.20;100.00
9139;BME280;4604;48.616;9.548;2023-11-21T02:11:52;96314.59;;;8.34;100.00
9139;BME280;4604;48.616;9.548;2023-11-21T02:14:19;96309.34;;;8.34;100.00
9139;BME280;4604;48.616;9.548;2023-11-21T02:16:50;96306.03;;;8.32;100.00
9139;BME280;4604;48.616;9.548;2023-11-21T02:19:18;96294.13;;;8.28;100.00
9139;BME280;4604;48.616;9.548;2023-11-21T02:21:49;96297.03;;;8.35;100.00
9139;BME280;4604;48.616;9.548;2023-11-21T02:24:18;96264.94;;;8.12;100.00
9139;BME280;4604;48.616;9.548;2023-11-21T02:26:45;96248.53;;;8.00;100.00
9139;BME280;4604;48.616;9.548;2023-11-21T02:29:12;96283.78;;;8.17;100.00
9139;BME280;4604;48.616;9.548;2023-11-21T02:31:39;96262.31;;;8.12;100.00
9139;BME280;4604;48.616;9.548;2023-11-21T02:34:13;96314.59;;;8.34;100.00
9139;BME280;4604;48.616;9.548;2023-11-21T02:36:40;96289.44;;;8.32;100.00
9139;BME280;4604;48.616;9.548;2023-11-21T02:39:08;96302.44;;;8.43;100.00
9139;BME280;4604;48.616;9.548;2023-11-21T02:41:36;96257.91;;;8.12;100.00
9139;BME280;4604;48.616;9.548;2023-11-21T02:44:03;96297.16;;;8.33;100.00
9139;BME280;4604;48.616;9.548;2023-11-21T02:46:31;96294.53;;;8.33;100.00
9139;BME280;4604;48.616;9.548;2023-11-21T02:48:59;96299.28;;;8.40;100.00
9139;BME280;4604;48.616;9.548;2023-11-21T02:51:25;96273.94;;;8.19;100.00
9139;BME280;4604;48.616;9.548;2023-11-21T02:53:52;96289.84;;;8.37;100.00
9139;BME280;4604;48.616;9.548;2023-11-21T02:56:19;96295.22;;;8.35;100.00
9139;BME280;4604;48.616;9.548;2023-11-21T02:58:47;96305.44;;;8.39;100.00
9139;BME280;4604;48.616;9.548;2023-11-21T03:01:14;96299.28;;;8.40;100.00
9139;BME280;4604;48.616;9.548;2023-11-21T03:03:40;96294.28;;;8.36;100.00
9139;BME280;4604;48.616;9.548;2023-11-21T03:06:07;96297.19;;;8.43;100.00
9139;BME280;4604;48.616;9.548;2023-11-21T03:08:34;96301.19;;;8.38;100.00
9139;BME280;4604;48.616;9.548;2023-11-21T03:11:01;96294.41;;;8.45;100.00
9139;BME280;4604;48.616;9.548;2023-11-21T03:13:29;96247.94;;;8.06;100.00
9139;BME280;4604;48.616;9.548;2023-11-21T03:15:58;96301.91;;;8.40;100.00
9139;BME280;4604;48.616;9.548;2023-11-21T03:18:25;96300.09;;;8.40;100.00
9139;BME280;4604;48.616;9.548;2023-11-21T03:20:52;96288.44;;;8.33;100.00
9139;BME280;4604;48.616;9.548;2023-11-21T03:23:18;96297.47;;;8.40;100.00
9139;BME280;4604;48.616;9.548;2023-11-21T03:25:45;96302.44;;;8.43;100.00
9139;BME280;4604;48.616;9.548;2023-11-21T03:28:12;96306.19;;;8.41;100.00
9139;BME280;4604;48.616;9.548;2023-11-21T03:30:38;96298.41;;;8.39;100.00
9139;BME280;4604;48.616;9.548;2023-11-21T03:33:06;96279.34;;;8.18;100.00
9139;BME280;4604;48.616;9.548;2023-11-21T03:35:34;96302.00;;;8.38;100.00
9139;BME280;4604;48.616;9.548;2023-11-21T03:38:00;96301.31;;;8.36;100.00
9139;BME280;4604;48.616;9.548;2023-11-21T03:40:27;96302.28;;;8.35;100.00
9139;BME280;4604;48.616;9.548;2023-11-21T03:42:54;96299.66;;;8.35;100.00
9139;BME280;4604;48.616;9.548;2023-11-21T03:45:20;96298.56;;;8.47;100.00
9139;BME280;4604;48.616;9.548;2023-11-21T03:47:47;96299.53;;;8.36;100.00
9139;BME280;4604;48.616;9.548;2023-11-21T03:50:15;96289.69;;;8.29;100.00
9139;BME280;4604;48.616;9.548;2023-11-21T03:52:42;96300.47;;;8.35;100.00
9139;BME280;4604;48.616;9.548;2023-11-21T03:55:08;96305.22;;;8.42;100.00
9139;BME280;4604;48.616;9.548;2023-11-21T03:57:35;96306.31;;;8.39;100.00
9139;BME280;4604;48.616;9.548;2023-11-21T04:00:03;96291.66;;;8.36;100.00
9139;BME280;4604;48.616;9.548;2023-11-21T04:02:33;96299.53;;;8.36;100.00
9139;BME280;4604;48.616;9.548;2023-11-21T04:05:00;96292.47;;;8.37;100.00
9139;BME280;4604;48.616;9.548;2023-11-21T04:07:28;96279.34;;;8.27;100.00
9139;BME280;4604;48.616;9.548;2023-11-21T04:09:55;96283.78;;;8.27;100.00
9139;BME280;4604;48.616;9.548;2023-11-21T04:12:22;96290.94;;;8.34;100.00
9139;BME280;4604;48.616;9.548;2023-11-21T04:14:48;96300.34;;;8.37;100.00
9139;BME280;4604;48.616;9.548;2023-11-21T04:17:17;96291.06;;;8.33;100.00
9139;BME280;4604;48.616;9.548;2023-11-21T04:19:44;96298.69;;;8.46;100.00
9139;BME280;4604;48.616;9.548;2023-11-21T04:22:11;96276.00;;;8.25;100.00
9139;BME280;4604;48.616;9.548;2023-11-21T04:24:39;96296.91;;;8.36;100.00
9139;BME280;4604;48.616;9.548;2023-11-21T04:27:06;96303.81;;;8.38;100.00
9139;BME280;4604;48.616;9.548;2023-11-21T04:29:33;96300.63;;;8.34;100.00
9139;BME280;4604;48.616;9.548;2023-11-21T04:32:00;96293.56;;;8.34;100.00
9139;BME280;4604;48.616;9.548;2023-11-21T04:34:28;96293.56;;;8.34;100.00
9139;BME280;4604;48.616;9.548;2023-11-21T04:36:56;96304.94;;;8.45;100.00
9139;BME280;4604;48.616;9.548;2023-11-21T04:39:22;96303.69;;;8.39;100.00
9139;BME280;4604;48.616;9.548;2023-11-21T04:41:50;96311.56;;;8.39;100.00
9139;BME280;4604;48.616;9.548;2023-11-21T04:44:17;96294.81;;;8.30;100.00
9139;BME280;4604;48.616;9.548;2023-11-21T04:46:43;96325.97;;;8.45;100.00
9139;BME280;4604;48.616;9.548;2023-11-21T04:49:10;96317.25;;;8.44;100.00
9139;BME280;4604;48.616;9.548;2023-11-21T04:51:37;96298.00;;;8.34;100.00
9139;BME280;4604;48.616;9.548;2023-11-21T04:54:04;96316.69;;;8.41;100.00
9139;BME280;4604;48.616;9.548;2023-11-21T04:56:31;96324.16;;;8.35;100.00
9139;BME280;4604;48.616;9.548;2023-11-21T04:58:59;96327.75;;;8.34;100.00
9139;BME280;4604;48.616;9.548;2023-11-21T05:01:25;96324.97;;;8.36;100.00
9139;BME280;4604;48.616;9.548;2023-11-21T05:03:52;96329.41;;;8.35;100.00
9139;BME280;4604;48.616;9.548;2023-11-21T05:06:19;96326.94;;;8.34;100.00
9139;BME280;4604;48.616;9.548;2023-11-21T05:08:45;96295.94;;;8.18;100.00
9139;BME280;4604;48.616;9.548;2023-11-21T05:11:23;96334.38;;;8.39;100.00
9139;BME280;4604;48.616;9.548;2023-11-21T05:13:50;96334.56;;;8.47;100.00
9139;BME280;4604;48.616;9.548;2023-11-21T05:16:18;96335.50;;;8.46;100.00
9139;BME280;4604;48.616;9.548;2023-11-21T05:18:44;96323.59;;;8.32;100.00
9139;BME280;4604;48.616;9.548;2023-11-21T05:21:11;96323.19;;;8.27;100.00
9139;BME280;4604;48.616;9.548;2023-11-21T05:23:38;96337.16;;;8.37;100.00
9139;BME280;4604;48.616;9.548;2023-11-21T05:26:05;96344.22;;;8.36;100.00
9139;BME280;4604;48.616;9.548;2023-11-21T05:28:32;96339.94;;;8.26;100.00
9139;BME280;4604;48.616;9.548;2023-11-21T05:30:59;96275.63;;;7.91;100.00
9139;BME280;4604;48.616;9.548;2023-11-21T05:33:28;96353.47;;;8.31;100.00
9139;BME280;4604;48.616;9.548;2023-11-21T05:35:54;96358.91;;;8.29;100.00
9139;BME280;4604;48.616;9.548;2023-11-21T05:38:21;96353.63;;;8.29;100.00
9139;BME280;4604;48.616;9.548;2023-11-21T05:40:48;96360.94;;;8.35;100.00
9139;BME280;4604;48.616;9.548;2023-11-21T05:43:14;96345.59;;;8.21;100.00
9139;BME280;4604;48.616;9.548;2023-11-21T05:45:41;96358.50;;;8.24;100.00
9139;BME280;4604;48.616;9.548;2023-11-21T05:48:08;96348.63;;;8.26;100.00
9139;BME280;4604;48.616;9.548;2023-11-21T05:50:36;96303.13;;;7.97;100.00
9139;BME280;4604;48.616;9.548;2023-11-21T05:53:04;96339.94;;;8.16;100.00
9139;BME280;4604;48.616;9.548;2023-11-21T05:55:31;96326.25;;;8.12;100.00
9139;BME280;4604;48.616;9.548;2023-11-21T05:57:57;96373.72;;;8.40;100.00
9139;BME280;4604;48.616;9.548;2023-11-21T06:00:25;96371.47;;;8.35;100.00
9139;BME280;4604;48.616;9.548;2023-11-21T06:02:53;96302.84;;;7.90;100.00
9139;BME280;4604;48.616;9.548;2023-11-21T06:05:24;96378.41;;;8.36;100.00
9139;BME280;4604;48.616;9.548;2023-11-21T06:07:53;96373.16;;;8.36;100.00
9139;BME280;4604;48.616;9.548;2023-11-21T06:10:22;96364.56;;;8.15;100.00
9139;BME280;4604;48.616;9.548;2023-11-21T06:12:49;96337.56;;;7.93;100.00
9139;BME280;4604;48.616;9.548;2023-11-21T06:15:16;96348.38;;;8.00;100.00
9139;BME280;4604;48.616;9.548;2023-11-21T06:17:47;96339.94;;;7.97;100.00
9139;BME280;4604;48.616;9.548;2023-11-21T06:20:18;96402.47;;;8.32;100.00
9139;BME280;4604;48.616;9.548;2023-11-21T06:22:49;96400.78;;;8.31;100.00
9139;BME280;4604;48.616;9.548;2023-11-21T06:25:17;96348.38;;;8.00;100.00
9139;BME280;4604;48.616;9.548;2023-11-21T06:27:46;96400.38;;;8.35;100.00
9139;BME280;4604;48.616;9.548;2023-11-21T06:30:16;96329.56;;;7.85;100.00
9139;BME280;4604;48.616;9.548;2023-11-21T06:32:45;96381.44;;;8.12;100.00
9139;BME280;4604;48.616;9.548;2023-11-21T06:35:12;96384.47;;;8.18;100.00
9139;BME280;4604;48.616;9.548;2023-11-21T06:37:43;96417.28;;;8.33;100.00
9139;BME280;4604;48.616;9.548;2023-11-21T06:40:15;96387.53;;;8.13;100.00
9139;BME280;4604;48.616;9.548;2023-11-21T06:42:49;96350.59;;;7.95;100.00
9139;BME280;4604;48.616;9.548;2023-11-21T06:45:19;96387.53;;;8.13;100.00
9139;BME280;4604;48.616;9.548;2023-11-21T06:47:46;96412.13;;;8.31;100.00
9139;BME280;4604;48.616;9.548;2023-11-21T06:50:14;96410.19;;;8.24;100.00
9139;BME280;4604;48.616;9.548;2023-11-21T06:52:40;96413.69;;;8.24;100.00
9139;BME280;4604;48.616;9.548;2023-11-21T06:55:08;96397.06;;;8.14;100.00
9139;BME280;4604;48.616;9.548;2023-11-21T06:57:57;96413.81;;;8.13;100.00
9139;BME280;4604;48.616;9.548;2023-11-21T07:00:26;96412.56;;;8.07;100.00
9139;BME280;4604;48.616;9.548;2023-11-21T07:02:53;96417.81;;;8.17;100.00
9139;BME280;4604;48.616;9.548;2023-11-21T07:05:20;96428.88;;;8.21;100.00
9139;BME280;4604;48.616;9.548;2023-11-21T07:07:47;96433.16;;;8.22;100.00
9139;BME280;4604;48.616;9.548;2023-11-21T07:10:14;96420.16;;;8.10;100.00
9139;BME280;4604;48.616;9.548;2023-11-21T07:12:42;96430.41;;;8.23;100.00
9139;BME280;4604;48.616;9.548;2023-11-21T07:15:10;96423.63;;;8.21;100.00
9139;BME280;4604;48.616;9.548;2023-11-21T07:17:39;96437.47;;;8.23;100.00
9139;BME280;4604;48.616;9.548;2023-11-21T07:20:27;96452.00;;;8.27;100.00
9139;BME280;4604;48.616;9.548;2023-11-21T07:23:22;96440.41;;;8.29;100.00
9139;BME280;4604;48.616;9.548;2023-11-21T07:26:05;96378.63;;;7.85;100.00
9139;BME280;4604;48.616;9.548;2023-11-21T07:28:37;96431.50;;;8.21;100.00
9139;BME280;4604;48.616;9.548;2023-11-21T07:31:09;96436.09;;;8.28;100.00
9139;BME280;4604;48.616;9.548;2023-11-21T07:33:37;96425.72;;;8.27;100.00
9139;BME280;4604;48.616;9.548;2023-11-21T07:36:04;96433.75;;;8.35;100.00
9139;BME280;4604;48.616;9.548;2023-11-21T07:38:31;96451.91;;;8.48;100.00
9139;BME280;4604;48.616;9.548;2023-11-21T07:40:58;96449.56;;;8.45;100.00
9139;BME280;4604;48.616;9.548;2023-11-21T07:43:26;96440.09;;;8.32;100.00
9139;BME280;4604;48.616;9.548;2023-11-21T07:45:58;96460.09;;;8.54;100.00
9139;BME280;4604;48.616;9.548;2023-11-21T07:48:26;96442.78;;;8.42;100.00
9139;BME280;4604;48.616;9.548;2023-11-21T07:50:53;96464.94;;;8.59;100.00
9139;BME280;4604;48.616;9.548;2023-11-21T07:53:19;96449.69;;;8.53;100.00
9139;BME280;4604;48.616;9.548;2023-11-21T07:55:47;96469.22;;;8.70;100.00
9139;BME280;4604;48.616;9.548;2023-11-21T07:58:13;96476.81;;;8.73;100.00
9139;BME280;4604;48.616;9.548;2023-11-21T08:00:40;96473.94;;;8.76;100.00
9139;BME280;4604;48.616;9.548;2023-11-21T08:03:07;96460.78;;;8.76;100.00
9139;BME280;4604;48.616;9.548;2023-11-21T08:05:41;96478.78;;;8.90;100.00
9139;BME280;4604;48.616;9.548;2023-11-21T08:08:08;96461.19;;;8.81;100.00
9139;BME280;4604;48.616;9.548;2023-11-21T08:10:35;96478.91;;;8.98;100.00
9139;BME280;4604;48.616;9.548;2023-11-21T08:13:02;96481.63;;;9.07;100.00
9139;BME280;4604;48.616;9.548;2023-11-21T08:15:29;96449.94;;;8.98;100.00
9139;BME280;4604;48.616;9.548;2023-11-21T08:17:57;96470.69;;;9.21;100.00
9139;BME280;4604;48.616;9.548;2023-11-21T08:20:24;96471.94;;;9.27;100.00
9139;BME280;4604;48.616;9.548;2023-11-21T08:22:52;96472.47;;;9.30;100.00
9139;BME280;4604;48.616;9.548;2023-11-21T08:25:19;96475.63;;;9.34;100.00
9139;BME280;4604;48.616;9.548;2023-11-21T08:27:46;96484.91;;;9.38;100.00
9139;BME280;4604;48.616;9.548;2023-11-21T08:30:13;96470.78;;;9.39;100.00
9139;BME280;4604;48.616;9.548;2023-11-21T08:32:42;96465.81;;;9.26;100.00
9139;BME280;4604;48.616;9.548;2023-11-21T08:35:08;96490.03;;;9.39;100.00
9139;BME280;4604;48.616;9.548;2023-11-21T08:37:35;96479.34;;;9.41;100.00
9139;BME280;4604;48.616;9.548;2023-11-21T08:40:05;96488.19;;;9.59;100.00
9139;BME280;4604;48.616;9.548;2023-11-21T08:42:34;96500.75;;;9.65;100.00
9139;BME280;4604;48.616;9.548;2023-11-21T08:45:01;96495.25;;;9.59;100.00
9139;BME280;4604;48.616;9.548;2023-11-21T08:47:27;96495.28;;;9.49;100.00
9139;BME280;4604;48.616;9.548;2023-11-21T08:49:54;96508.03;;;9.54;100.00
9139;BME280;4604;48.616;9.548;2023-11-21T08:52:21;96503.63;;;9.35;100.00
9139;BME280;4604;48.616;9.548;2023-11-21T08:54:48;96502.44;;;9.19;100.00
9139;BME280;4604;48.616;9.548;2023-11-21T08:57:22;96501.72;;;9.17;100.00
9139;BME280;4604;48.616;9.548;2023-11-21T08:59:49;96512.81;;;9.02;100.00
9139;BME280;4604;48.616;9.548;2023-11-21T09:02:20;96507.44;;;8.93;100.00
9139;BME280;4604;48.616;9.548;2023-11-21T09:04:50;96510.75;;;8.86;100.00
9139;BME280;4604;48.616;9.548;2023-11-21T09:07:17;96511.69;;;9.14;100.00
9139;BME280;4604;48.616;9.548;2023-11-21T09:09:45;96499.25;;;8.77;100.00
9139;BME280;4604;48.616;9.548;2023-11-21T09:12:12;96517.84;;;8.95;100.00
9139;BME280;4604;48.616;9.548;2023-11-21T09:14:40;96495.38;;;8.71;100.00
9139;BME280;4604;48.616;9.548;2023-11-21T09:17:08;96521.69;;;9.00;100.00
9139;BME280;4604;48.616;9.548;2023-11-21T09:19:37;96521.53;;;9.02;100.00
9139;BME280;4604;48.616;9.548;2023-11-21T09:22:03;96531.00;;;8.85;100.00
9139;BME280;4604;48.616;9.548;2023-11-21T09:24:30;96532.94;;;8.83;100.00
9139;BME280;4604;48.616;9.548;2023-11-21T09:26:57;96533.63;;;8.85;100.00
9139;BME280;4604;48.616;9.548;2023-11-21T09:29:25;96527.09;;;8.79;100.00
9139;BME280;4604;48.616;9.548;2023-11-21T09:31:53;96532.06;;;8.92;100.00
9139;BME280;4604;48.616;9.548;2023-11-21T09:34:20;96514.91;;;8.98;100.00
9139;BME280;4604;48.616;9.548;2023-11-21T09:36:47;96538.00;;;9.24;100.00
9139;BME280;4604;48.616;9.548;2023-11-21T09:39:15;96520.81;;;9.39;100.00
9139;BME280;4604;48.616;9.548;2023-11-21T09:41:44;96537.56;;;9.48;100.00
9139;BME280;4604;48.616;9.548;2023-11-21T09:44:14;96539.09;;;9.40;100.00
9139;BME280;4604;48.616;9.548;2023-11-21T09:46:44;96535.50;;;9.51;100.00
9139;BME280;4604;48.616;9.548;2023-11-21T09:49:15;96537.28;;;9.41;100.00
9139;BME280;4604;48.616;9.548;2023-11-21T09:51:44;96538.81;;;9.34;100.00
9139;BME280;4604;48.616;9.548;2023-11-21T09:54:13;96541.91;;;9.29;100.00
9139;BME280;4604;48.616;9.548;2023-11-21T09:56:42;96544.66;;;9.37;100.00
9139;BME280;4604;48.616;9.548;2023-11-21T09:59:13;96530.00;;;9.25;100.00
9139;BME280;4604;48.616;9.548;2023-11-21T10:01:41;96543.28;;;9.24;100.00
9139;BME280;4604;48.616;9.548;2023-11-21T10:04:08;96551.88;;;9.35;100.00
9139;BME280;4604;48.616;9.548;2023-11-21T10:06:39;96545.91;;;9.33;100.00
9139;BME280;4604;48.616;9.548;2023-11-21T10:09:07;96556.44;;;9.33;100.00
9139;BME280;4604;48.616;9.548;2023-11-21T10:11:52;96552.28;;;9.11;100.00
9139;BME280;4604;48.616;9.548;2023-11-21T10:14:24;96541.22;;;9.08;100.00
9139;BME280;4604;48.616;9.548;2023-11-21T10:16:52;96541.06;;;8.90;100.00
9139;BME280;4604;48.616;9.548;2023-11-21T10:19:21;96556.63;;;9.03;100.00
9139;BME280;4604;48.616;9.548;2023-11-21T10:21:53;96554.69;;;9.05;100.00
9139;BME280;4604;48.616;9.548;2023-11-21T10:24:23;96556.59;;;8.83;100.00
9139;BME280;4604;48.616;9.548;2023-11-21T10:26:50;96550.94;;;8.78;100.00
9139;BME280;4604;48.616;9.548;2023-11-21T10:29:19;96545.22;;;8.73;100.00
9139;BME280;4604;48.616;9.548;2023-11-21T10:31:49;96554.09;;;8.82;100.00
9139;BME280;4604;48.616;9.548;2023-11-21T10:34:17;96552.28;;;8.82;100.00
9139;BME280;4604;48.616;9.548;2023-11-21T10:36:45;96559.38;;;9.01;100.00
9139;BME280;4604;48.616;9.548;2023-11-21T10:39:16;96553.69;;;8.96;100.00
9139;BME280;4604;48.616;9.548;2023-11-21T10:41:44;96567.13;;;9.12;100.00
9139;BME280;4604;48.616;9.548;2023-11-21T10:44:19;96503.00;;;8.74;100.00
9139;BME280;4604;48.616;9.548;2023-11-21T10:46:50;96547.88;;;9.02;100.00
9139;BME280;4604;48.616;9.548;2023-11-21T10:49:20;96563.81;;;9.10;100.00
9139;BME280;4604;48.616;9.548;2023-11-21T10:51:46;96567.56;;;9.17;100.00
9139;BME280;4604;48.616;9.548;2023-11-21T10:54:19;96566.56;;;9.28;100.00
9139;BME280;4604;48.616;9.548;2023-11-21T10:56:49;96566.25;;;9.41;100.00
9139;BME280;4604;48.616;9.548;2023-11-21T10:59:18;96563.78;;;9.49;100.00
9139;BME280;4604;48.616;9.548;2023-11-21T11:01:50;96537.28;;;9.51;100.00
9139;BME280;4604;48.616;9.548;2023-11-21T11:04:19;96541.13;;;9.66;100.00
9139;BME280;4604;48.616;9.548;2023-11-21T11:06:51;96553.28;;;9.86;100.00
9139;BME280;4604;48.616;9.548;2023-11-21T11:09:23;96540.78;;;9.89;100.00
9139;BME280;4604;48.616;9.548;2023-11-21T11:11:51;96530.53;;;10.13;100.00
9139;BME280;4604;48.616;9.548;2023-11-21T11:14:19;96546.94;;;10.44;100.00
9139;BME280;4604;48.616;9.548;2023-11-21T11:16:53;96542.88;;;10.50;100.00
9139;BME280;4604;48.616;9.548;2023-11-21T11:19:19;96556.06;;;10.50;100.00
9139;BME280;4604;48.616;9.548;2023-11-21T11:21:53;96553.13;;;10.53;100.00
9139;BME280;4604;48.616;9.548;2023-11-21T11:24:41;96552.09;;;10.36;100.00
9139;BME280;4604;48.616;9.548;2023-11-21T11:27:20;96551.72;;;10.31;100.00
9139;BME280;4604;48.616;9.548;2023-11-21T11:29:59;96537.34;;;10.16;100.00
9139;BME280;4604;48.616;9.548;2023-11-21T11:32:37;96547.88;;;10.16;100.00
9139;BME280;4604;48.616;9.548;2023-11-21T11:35:10;96546.88;;;10.17;100.00
9139;BME280;4604;48.616;9.548;2023-11-21T11:37:37;96549.13;;;10.12;100.00
9139;BME280;4604;48.616;9.548;2023-11-21T11:40:11;96535.00;;;10.13;100.00
9139;BME280;4604;48.616;9.548;2023-11-21T11:42:38;96550.59;;;10.24;100.00
9139;BME280;4604;48.616;9.548;2023-11-21T11:45:17;96555.22;;;10.22;100.00
9139;BME280;4604;48.616;9.548;2023-11-21T11:47:47;96528.25;;;10.00;100.00
9139;BME280;4604;48.616;9.548;2023-11-21T11:50:14;96556.34;;;10.19;100.00
9139;BME280;4604;48.616;9.548;2023-11-21T11:52:42;96558.81;;;10.21;100.00
9139;BME280;4604;48.616;9.548;2023-11-21T11:55:12;96557.16;;;10.20;100.00
9139;BME280;4604;48.616;9.548;2023-11-21T11:57:41;96559.38;;;10.24;100.00
9139;BME280;4604;48.616;9.548;2023-11-21T12:00:15;96568.19;;;10.05;100.00
9139;BME280;4604;48.616;9.548;2023-11-21T12:02:44;96562.13;;;9.95;100.00
9139;BME280;4604;48.616;9.548;2023-11-21T12:05:12;96555.88;;;9.96;100.00
9139;BME280;4604;48.616;9.548;2023-11-21T12:07:42;96565.94;;;10.11;100.00
9139;BME280;4604;48.616;9.548;2023-11-21T12:10:13;96557.81;;;9.94;100.00
9139;BME280;4604;48.616;9.548;2023-11-21T12:12:44;96562.69;;;9.89;100.00
9139;BME280;4604;48.616;9.548;2023-11-21T12:15:13;96570.78;;;9.78;100.00
9139;BME280;4604;48.616;9.548;2023-11-21T12:17:41;96549.75;;;9.68;100.00
9139;BME280;4604;48.616;9.548;2023-11-21T12:20:10;96566.78;;;9.74;100.00
9139;BME280;4604;48.616;9.548;2023-11-21T12:22:44;96563.03;;;9.67;100.00
9139;BME280;4604;48.616;9.548;2023-11-21T12:25:14;96576.63;;;9.62;100.00
9139;BME280;4604;48.616;9.548;2023-11-21T12:27:44;96573.31;;;9.50;100.00
9139;BME280;4604;48.616;9.548;2023-11-21T12:30:12;96571.81;;;9.38;100.00
9139;BME280;4604;48.616;9.548;2023-11-21T12:32:41;96568.38;;;9.37;100.00
9139;BME280;4604;48.616;9.548;2023-11-21T12:35:09;96574.44;;;9.48;100.00
9139;BME280;4604;48.616;9.548;2023-11-21T12:37:36;96567.38;;;9.38;100.00
9139;BME280;4604;48.616;9.548;2023-11-21T12:40:05;96585.81;;;9.48;100.00
9139;BME280;4604;48.616;9.548;2023-11-21T12:42:34;96580.97;;;9.34;100.00
9139;BME280;4604;48.616;9.548;2023-11-21T12:45:08;96588.44;;;9.38;100.00
9139;BME280;4604;48.616;9.548;2023-11-21T12:47:40;96587.78;;;9.46;100.00
9139;BME280;4604;48.616;9.548;2023-11-21T12:50:07;96582.22;;;9.39;100.00
9139;BME280;4604;48.616;9.548;2023-11-21T12:52:42;96571.13;;;9.36;100.00
9139;BME280;4604;48.616;9.548;2023-11-21T12:55:14;96584.72;;;9.31;100.00
9139;BME280;4604;48.616;9.548;2023-11-21T12:57:43;96574.44;;;9.38;100.00
9139;BME280;4604;48.616;9.548;2023-11-21T13:00:12;96584.28;;;9.46;100.00
9139;BME280;4604;48.616;9.548;2023-11-21T13:02:52;96589.56;;;9.46;100.00
9139;BME280;4604;48.616;9.548;2023-11-21T13:05:29;96584.28;;;9.46;100.00
9139;BME280;4604;48.616;9.548;2023-11-21T13:07:57;96575.44;;;9.27;100.00
9139;BME280;4604;48.616;9.548;2023-11-21T13:10:26;96596.75;;;9.34;100.00
9139;BME280;4604;48.616;9.548;2023-11-21T13:12:58;96592.91;;;9.18;100.00
9139;BME280;4604;48.616;9.548;2023-11-21T13:15:27;96576.69;;;8.94;100.00
9139;BME280;4604;48.616;9.548;2023-11-21T13:17:56;96578.47;;;8.84;100.00
9139;BME280;4604;48.616;9.548;2023-11-21T13:20:24;96593.03;;;8.97;100.00
9139;BME280;4604;48.616;9.548;2023-11-21T13:22:51;96556.03;;;8.79;100.00
9139;BME280;4604;48.616;9.548;2023-11-21T13:25:23;96576.56;;;8.95;100.00
9139;BME280;4604;48.616;9.548;2023-11-21T13:27:49;96604.25;;;9.19;100.00
9139;BME280;4604;48.616;9.548;2023-11-21T13:30:18;96587.91;;;9.06;100.00